Time;durP1;ratioP1;P1;durP2;ratioP2;P2;SDS_P1;SDS_P2;PMS_P1;PMS_P2;Temp;Humidity;BMP_temperature;BMP_pressure;BME280_temperature;BME280_humidity;BME280_pressure;Samples;Min_cycle;Max_cycle;Signal;HPM_P1;HPM_P2
2021/11/02 00:01:45;;;;;;;11.30;3.90;;;;;;;4.89;100.00;97671.13;4994825;28;20130;-82
2021/11/02 00:04:15;;;;;;;7.72;2.92;;;;;;;4.97;100.00;97680.97;4993598;28;20053;-82
2021/11/02 00:06:49;;;;;;;9.80;2.85;;;;;;;5.11;100.00;97677.41;4994424;28;20398;-81
2021/11/02 00:09:22;;;;;;;8.45;3.10;;;;;;;5.18;100.00;97687.44;4994391;28;20516;-82
2021/11/02 00:11:50;;;;;;;5.57;3.42;;;;;;;5.21;100.00;97695.13;4993772;28;20050;-81
2021/11/02 00:14:17;;;;;;;6.70;2.90;;;;;;;5.22;100.00;97689.56;4993368;28;20364;-82
2021/11/02 00:17:04;;;;;;;3.92;2.70;;;;;;;5.20;100.00;97686.22;4994212;28;20061;-81
2021/11/02 00:19:35;;;;;;;6.38;2.58;;;;;;;5.21;100.00;97676.28;4976744;28;20081;-81
2021/11/02 00:22:25;;;;;;;4.70;2.97;;;;;;;5.25;100.00;97681.09;4974283;28;20479;-82
2021/11/02 00:25:06;;;;;;;7.03;3.38;;;;;;;5.18;100.00;97660.50;4974793;28;20047;-82
2021/11/02 00:27:35;;;;;;;;;;;;;;;5.39;100.00;97678.59;4985017;28;20058;-82
2021/11/02 00:30:04;;;;;;;3.30;2.60;;;;;;;5.38;100.00;97680.44;4978918;28;19922;-82
2021/11/02 00:32:31;;;;;;;8.00;3.13;;;;;;;5.51;100.00;97677.09;4994368;28;20050;-82
2021/11/02 00:34:58;;;;;;;8.32;2.92;;;;;;;5.47;100.00;97665.00;4992965;28;20544;-81
2021/11/02 00:37:45;;;;;;;4.45;2.85;;;;;;;5.66;100.00;97675.19;4993092;28;20081;-82
2021/11/02 00:40:14;;;;;;;8.27;3.15;;;;;;;5.73;100.00;97666.34;4988597;28;20057;-82
2021/11/02 00:42:50;;;;;;;6.22;3.25;;;;;;;5.59;100.00;97671.59;4984395;28;20054;-82
2021/11/02 00:45:27;;;;;;;5.00;2.97;;;;;;;5.66;100.00;97668.94;4977670;28;20061;-82
2021/11/02 00:47:54;;;;;;;4.63;3.00;;;;;;;5.78;100.00;97664.75;4993995;28;20094;-82
2021/11/02 00:50:21;;;;;;;4.72;3.03;;;;;;;5.75;100.00;97677.75;4992910;28;20057;-82
2021/11/02 00:52:48;;;;;;;6.57;2.85;;;;;;;5.61;100.00;97674.09;4974441;28;20051;-82
2021/11/02 00:55:15;;;;;;;4.90;2.70;;;;;;;5.53;100.00;97649.94;4974416;28;20058;-82
2021/11/02 00:57:43;;;;;;;6.38;2.60;;;;;;;5.63;100.00;97674.72;4991456;28;20057;-82
2021/11/02 01:00:12;;;;;;;8.82;2.40;;;;;;;5.60;100.00;97670.56;4993679;28;20050;-82
2021/11/02 01:02:39;;;;;;;6.80;2.20;;;;;;;5.56;100.00;97676.53;4993725;28;20046;-82
2021/11/02 01:05:07;;;;;;;4.82;2.38;;;;;;;5.64;100.00;97677.22;4993965;28;20054;-82
2021/11/02 01:07:34;;;;;;;7.35;2.60;;;;;;;5.64;100.00;97687.19;4993716;28;20424;-81
2021/11/02 01:10:02;;;;;;;6.40;2.10;;;;;;;5.72;100.00;97692.47;4993616;28;20504;-81
2021/11/02 01:12:34;;;;;;;4.20;2.88;;;;;;;5.58;100.00;97667.19;4993232;28;20053;-81
2021/11/02 01:15:05;;;;;;;3.13;2.25;;;;;;;5.63;100.00;97663.94;4985995;28;20105;-79
2021/11/02 01:17:31;;;;;;;4.03;2.30;;;;;;;5.86;100.00;97661.09;4994041;28;20104;-80
2021/11/02 01:19:58;;;;;;;4.40;2.47;;;;;;;5.93;100.00;97648.53;4993799;28;20134;-79
2021/11/02 01:22:25;;;;;;;5.95;2.75;;;;;;;6.07;100.00;97656.75;4993307;28;20050;-79
2021/11/02 01:28:25;;;;;;;6.40;2.70;;;;;;;5.94;100.00;97642.06;4862372;29;20549;-79
2021/11/02 01:53:17;;;;;;;2.67;2.13;;;;;;;6.05;100.00;97664.19;4956129;29;20111;-80
2021/11/02 02:02:47;;;;;;;;;;;;;;;6.09;100.00;97654.72;4913771;29;20062;-79
2021/11/02 02:05:25;;;;;;;4.60;2.53;;;;;;;5.97;100.00;97638.19;4955873;29;19927;-79
2021/11/02 02:08:02;;;;;;;4.78;2.30;;;;;;;6.10;100.00;97664.47;4985206;28;20395;-80
2021/11/02 02:10:41;;;;;;;4.88;2.28;;;;;;;6.09;100.00;97660.94;4997068;28;20053;-80
2021/11/02 02:13:18;;;;;;;5.85;2.40;;;;;;;6.13;100.00;97659.53;4997017;28;20062;-79
2021/11/02 02:15:52;;;;;;;4.13;2.10;;;;;;;6.25;100.00;97642.78;4996616;28;20054;-79
2021/11/02 02:18:40;;;;;;;2.97;2.10;;;;;;;6.23;100.00;97661.06;4996514;28;20042;-79
2021/11/02 02:21:20;;;;;;;3.75;2.33;;;;;;;6.29;100.00;97646.78;4985123;28;20462;-79
2021/11/02 02:23:56;;;;;;;7.45;2.75;;;;;;;6.46;100.00;97644.63;4994260;28;20406;-78
2021/11/02 02:26:35;;;;;;;5.65;2.40;;;;;;;6.38;100.00;97634.81;4996409;28;20117;-78
2021/11/02 02:29:05;;;;;;;4.17;2.33;;;;;;;6.32;100.00;97633.75;4996761;28;20054;-78
2021/11/02 02:31:36;;;;;;;2.72;1.92;;;;;;;6.24;100.00;97628.47;4978565;28;21110;-78
2021/11/02 02:34:04;;;;;;;8.18;2.72;;;;;;;6.27;100.00;97622.69;4989745;28;20477;-78
2021/11/02 02:36:35;;;;;;;5.13;2.15;;;;;;;6.38;100.00;97637.50;4984844;28;20050;-78
2021/11/02 02:39:03;;;;;;;6.85;2.28;;;;;;;6.34;100.00;97637.06;4984295;28;20145;-78
2021/11/02 02:41:31;;;;;;;4.20;2.22;;;;;;;6.27;100.00;97619.97;4991417;28;20042;-79
2021/11/02 02:43:58;;;;;;;5.72;2.25;;;;;;;6.47;100.00;97635.50;4996259;28;20062;-78
2021/11/02 02:46:27;;;;;;;4.25;2.30;;;;;;;6.37;100.00;97628.59;4996037;28;20414;-78
2021/11/02 02:48:57;;;;;;;5.23;2.30;;;;;;;6.41;100.00;97636.28;4996061;28;20049;-78
2021/11/02 02:51:24;;;;;;;4.38;2.40;;;;;;;6.60;100.00;97640.19;4995949;28;20133;-78
2021/11/02 02:53:53;;;;;;;7.20;3.00;;;;;;;6.57;100.00;97625.19;4990200;28;20042;-78
2021/11/02 02:56:22;;;;;;;5.85;2.40;;;;;;;6.47;100.00;97630.09;4976688;28;20047;-78
2021/11/02 02:58:54;;;;;;;3.25;2.25;;;;;;;6.42;100.00;97622.59;4976593;28;20058;-78
2021/11/02 03:01:22;;;;;;;6.95;2.40;;;;;;;6.32;100.00;97603.19;4981447;28;20487;-78
2021/11/02 03:03:57;;;;;;;5.50;2.15;;;;;;;6.35;100.00;97613.59;4995801;28;20050;-78
2021/11/02 03:06:29;;;;;;;3.67;2.55;;;;;;;6.32;100.00;97614.84;4987676;28;20483;-78
2021/11/02 03:08:57;;;;;;;4.00;2.08;;;;;;;6.32;100.00;97609.47;4995840;28;20050;-78
2021/11/02 03:11:42;;;;;;;5.72;2.75;;;;;;;6.31;100.00;97615.06;4995244;28;20050;-79
2021/11/02 03:14:12;;;;;;;5.72;2.65;;;;;;;6.34;100.00;97610.09;4995394;28;20073;-78
2021/11/02 03:16:50;;;;;;;2.65;2.03;;;;;;;6.35;100.00;97629.81;4995332;28;20557;-78
2021/11/02 03:50:16;;;;;;;5.20;2.60;;;;;;;6.13;100.00;97626.31;4959936;28;20046;-79
2021/11/02 03:55:38;;;;;;;5.70;2.30;;;;;;;6.15;100.00;97619.69;4979806;28;20185;-78
2021/11/02 03:58:10;;;;;;;3.75;2.17;;;;;;;6.17;100.00;97622.19;4993385;28;20046;-79
2021/11/02 04:01:06;;;;;;;8.27;2.70;;;;;;;6.26;100.00;97631.78;4986699;28;20076;-79
2021/11/02 05:13:17;;;;;;;3.30;2.00;;;;;;;5.44;100.00;97616.88;4974440;28;20078;-79
2021/11/02 05:46:50;;;;;;;3.55;2.00;;;;;;;4.69;100.00;97608.88;4955259;28;20121;-78
2021/11/02 05:50:15;;;;;;;7.65;2.05;;;;;;;4.73;100.00;97622.81;4934764;28;20509;-78
2021/11/02 05:58:35;;;;;;;3.08;1.85;;;;;;;4.68;100.00;97622.53;4978227;28;20054;-79
2021/11/02 06:03:56;;;;;;;3.33;1.95;;;;;;;4.59;100.00;97616.38;4962430;28;20090;-78
2021/11/02 06:06:57;;;;;;;3.42;1.90;;;;;;;4.67;100.00;97613.63;4973803;28;20164;-78
2021/11/02 06:09:28;;;;;;;4.45;1.80;;;;;;;4.54;100.00;97627.72;4857331;29;20150;-78
2021/11/02 06:30:16;;;;;;;1.73;1.60;;;;;;;4.19;100.00;97643.53;4986388;28;20057;-78
2021/11/02 06:32:48;;;;;;;3.17;1.65;;;;;;;4.21;100.00;97649.53;4978247;28;20185;-78
2021/11/02 06:35:32;;;;;;;2.63;1.63;;;;;;;4.08;100.00;97644.78;4995943;28;20084;-78
2021/11/02 06:56:53;;;;;;;10.23;1.52;;;;;;;4.10;100.00;97660.75;4979895;28;20069;-78
2021/11/02 06:59:59;;;;;;;6.95;1.77;;;;;;;3.98;100.00;97638.81;4996084;28;20050;-78
2021/11/02 07:19:54;;;;;;;3.65;2.20;;;;;;;4.49;100.00;97642.75;4965777;28;20122;-78
2021/11/02 07:22:40;;;;;;;7.35;2.03;;;;;;;4.70;100.00;97660.88;4990933;28;20137;-78
2021/11/02 07:25:17;;;;;;;4.68;2.08;;;;;;;4.75;100.00;97661.16;4995362;28;20057;-78
2021/11/02 08:58:09;;;;;;;;;;;;;;;;;;;;;
2021/11/02 09:01:24;;;;;;;1.88;1.10;;;;;;;7.86;100.00;97648.03;4890668;29;20478;-78
2021/11/02 09:04:10;;;;;;;2.83;1.63;;;;;;;7.86;100.00;97639.94;4890684;29;20044;-79
2021/11/02 09:10:12;;;;;;;4.93;1.20;;;;;;;8.04;100.00;97642.03;4875705;29;20166;-79
2021/11/02 09:12:43;;;;;;;2.55;1.50;;;;;;;8.11;100.00;97637.47;4970855;28;20089;-79
2021/11/02 09:15:11;;;;;;;7.38;1.63;;;;;;;8.23;100.00;97655.81;4973051;28;20069;-79
2021/11/02 09:17:44;;;;;;;4.55;2.33;;;;;;;8.32;100.00;97657.25;4971845;28;20437;-79
2021/11/02 09:20:13;;;;;;;7.53;1.55;;;;;;;8.29;100.00;97644.13;4972875;28;20086;-79
2021/11/02 09:22:41;;;;;;;5.40;1.50;;;;;;;8.33;100.00;97634.56;4972815;28;20054;-79
2021/11/02 09:28:15;;;;;;;1.63;1.08;;;;;;;8.68;100.00;97631.66;4967660;28;20403;-79
2021/11/02 09:30:42;;;;;;;4.35;1.58;;;;;;;8.60;100.00;97615.63;4973058;28;20483;-79
2021/11/02 09:33:11;;;;;;;3.80;1.63;;;;;;;8.68;100.00;97635.19;4971887;28;20051;-79
2021/11/02 09:35:38;;;;;;;2.42;1.48;;;;;;;8.89;100.00;97641.41;4972541;28;20061;-79
2021/11/02 09:38:21;;;;;;;2.33;1.27;;;;;;;8.83;100.00;97634.13;4972059;28;20070;-79
2021/11/02 09:48:08;;;;;;;2.60;1.17;;;;;;;8.72;100.00;97640.22;4960631;28;20055;-79
2021/11/02 09:51:20;;;;;;;3.28;1.20;;;;;;;8.59;100.00;97649.19;4975322;28;20055;-78
2021/11/02 09:54:22;;;;;;;1.83;0.93;;;;;;;8.44;100.00;97652.09;4959255;28;20062;-78
2021/11/02 10:00:19;;;;;;;2.55;1.35;;;;;;;8.42;100.00;97662.28;4953751;28;20511;-78
2021/11/02 10:03:17;;;;;;;3.42;1.50;;;;;;;8.24;100.00;97652.88;4975981;28;20053;-78
2021/11/02 10:06:04;;;;;;;4.38;1.95;;;;;;;8.25;100.00;97662.69;4973178;28;20483;-78
2021/11/02 10:12:02;;;;;;;5.38;1.50;;;;;;;7.91;100.00;97661.78;4948213;28;20400;-78
2021/11/02 10:14:50;;;;;;;3.60;1.80;;;;;;;7.82;100.00;97651.38;4969132;28;20062;-78
2021/11/02 10:17:49;;;;;;;1.83;1.10;;;;;;;7.83;100.00;97664.69;4975985;28;20050;-78
2021/11/02 10:20:33;;;;;;;8.68;1.80;;;;;;;7.73;100.00;97667.78;4939651;29;20138;-78
2021/11/02 10:23:17;;;;;;;10.85;1.70;;;;;;;7.80;100.00;97673.22;4971897;28;20047;-78
2021/11/02 10:26:26;;;;;;;3.55;1.55;;;;;;;7.86;100.00;97666.13;4975766;28;20050;-78
2021/11/02 10:29:26;;;;;;;3.15;1.65;;;;;;;7.86;100.00;97658.88;4974778;28;20046;-77
2021/11/02 10:32:00;;;;;;;2.42;1.33;;;;;;;7.81;100.00;97661.34;4956799;29;20123;-77
2021/11/02 10:34:48;;;;;;;3.28;1.63;;;;;;;7.82;100.00;97656.78;4973273;28;20455;-78
2021/11/02 10:37:26;;;;;;;4.50;1.48;;;;;;;7.77;100.00;97660.91;4975219;28;20090;-78
2021/11/02 10:40:28;;;;;;;7.18;1.90;;;;;;;7.92;100.00;97657.22;4975424;28;20043;-78
2021/11/02 10:43:42;;;;;;;10.57;2.03;;;;;;;7.92;100.00;97652.63;4975761;28;20066;-78
2021/11/02 10:46:12;;;;;;;3.30;1.50;;;;;;;8.02;100.00;97668.47;4973540;28;20055;-78
2021/11/02 10:48:49;;;;;;;4.95;1.80;;;;;;;8.04;100.00;97668.25;4975563;28;20058;-77
2021/11/02 10:51:32;;;;;;;2.78;1.58;;;;;;;7.97;100.00;97658.25;4958732;28;20090;-78
2021/11/02 10:54:13;;;;;;;1.38;1.20;;;;;;;7.88;100.00;97648.66;4975749;28;20344;-77
2021/11/02 10:57:04;;;;;;;2.25;1.73;;;;;;;8.04;100.00;97662.84;4970971;28;20046;-77
2021/11/02 10:59:32;;;;;;;2.92;1.30;;;;;;;8.12;100.00;97668.91;4966504;28;20043;-78
2021/11/02 11:02:00;;;;;;;2.95;1.25;;;;;;;7.96;100.00;97662.03;4975199;28;20109;-78
2021/11/02 11:04:33;;;;;;;3.22;1.30;;;;;;;8.08;100.00;97664.09;4964252;28;20054;-78
2021/11/02 11:07:01;;;;;;;5.07;1.45;;;;;;;7.97;100.00;97665.56;4972206;28;20085;-78
2021/11/02 11:09:30;;;;;;;2.30;1.30;;;;;;;7.87;100.00;97657.81;4968734;28;20055;-77
2021/11/02 11:12:05;;;;;;;4.22;1.50;;;;;;;7.88;100.00;97653.25;4964263;28;20043;-77
2021/11/02 11:14:51;;;;;;;4.35;1.58;;;;;;;7.93;100.00;97654.31;4973781;28;20049;-78
2021/11/02 11:17:27;;;;;;;4.43;1.40;;;;;;;7.97;100.00;97660.13;4966163;28;20403;-78
2021/11/02 11:20:03;;;;;;;7.70;1.67;;;;;;;7.93;100.00;97654.31;4974863;28;20144;-77
2021/11/02 11:22:35;;;;;;;6.47;1.85;;;;;;;7.96;100.00;97661.16;4974787;28;20051;-77
2021/11/02 11:25:08;;;;;;;4.10;2.00;;;;;;;7.93;100.00;97646.19;4974462;28;20047;-77
2021/11/02 11:27:37;;;;;;;4.35;2.05;;;;;;;8.00;100.00;97645.38;4975014;28;20058;-77
2021/11/02 11:30:07;;;;;;;3.05;1.83;;;;;;;8.10;100.00;97660.16;4972126;28;20085;-77
2021/11/02 11:32:42;;;;;;;4.13;2.05;;;;;;;8.02;100.00;97640.56;4968532;28;20490;-78
2021/11/02 11:35:10;;;;;;;5.05;1.65;;;;;;;7.94;100.00;97638.91;4963430;28;20058;-78
2021/11/02 11:37:40;;;;;;;4.40;1.83;;;;;;;8.21;100.00;97656.00;4964742;28;20050;-78
2021/11/02 11:40:20;;;;;;;7.55;1.80;;;;;;;8.12;100.00;97649.94;4974694;28;20443;-78
2021/11/02 11:42:48;;;;;;;4.65;1.30;;;;;;;8.12;100.00;97652.66;4971556;28;20050;-78
2021/11/02 11:45:17;;;;;;;2.67;1.42;;;;;;;8.12;100.00;97654.53;4973964;28;20059;-78
2021/11/02 11:47:44;;;;;;;2.93;1.50;;;;;;;8.06;100.00;97637.25;4974234;28;20070;-78
2021/11/02 11:50:21;;;;;;;3.97;1.88;;;;;;;8.05;100.00;97627.44;4974283;28;20094;-78
2021/11/02 11:52:50;;;;;;;6.93;1.80;;;;;;;8.15;100.00;97644.13;4974204;28;20046;-78
2021/11/02 11:55:36;;;;;;;4.18;1.52;;;;;;;8.06;100.00;97636.44;4974002;28;20051;-78
2021/11/02 11:58:09;;;;;;;3.17;1.55;;;;;;;8.14;100.00;97636.22;4974462;28;20529;-77
2021/11/02 12:00:38;;;;;;;5.00;1.63;;;;;;;8.22;100.00;97627.06;4972973;28;20054;-77
2021/11/02 12:03:16;;;;;;;10.60;2.38;;;;;;;8.18;100.00;97623.94;4974021;28;20058;-77
2021/11/02 12:05:59;;;;;;;5.00;1.80;;;;;;;8.26;100.00;97618.31;4973560;28;20050;-77
2021/11/02 12:08:45;;;;;;;4.53;1.50;;;;;;;8.45;100.00;97629.41;4973521;28;20110;-77
2021/11/02 12:11:18;;;;;;;2.60;1.33;;;;;;;8.41;100.00;97617.28;4973125;28;20487;-77
2021/11/02 12:13:49;;;;;;;4.93;2.08;;;;;;;8.56;100.00;97619.81;4971090;28;20050;-77
2021/11/02 12:16:24;;;;;;;2.97;1.50;;;;;;;8.71;100.00;97619.56;4972554;28;20054;-77
2021/11/02 12:18:56;;;;;;;3.33;1.95;;;;;;;8.73;100.00;97622.91;4970464;28;20077;-78
2021/11/02 12:22:12;;;;;;;2.75;1.73;;;;;;;8.69;100.00;97611.66;4973896;28;20089;-78
2021/11/02 12:24:43;;;;;;;5.82;1.88;;;;;;;8.73;100.00;97601.22;4968554;28;20057;-78
2021/11/02 12:27:13;;;;;;;2.78;1.67;;;;;;;8.81;100.00;97615.38;4972299;28;20047;-77
2021/11/02 12:29:42;;;;;;;3.38;1.75;;;;;;;8.89;100.00;97608.91;4973863;28;20051;-78
2021/11/02 12:32:12;;;;;;;8.27;1.85;;;;;;;8.95;100.00;97604.50;4973380;28;20134;-78
2021/11/02 12:34:50;;;;;;;6.68;1.65;;;;;;;8.97;100.00;97603.25;4973481;28;20057;-78
2021/11/02 12:37:52;;;;;;;2.85;1.50;;;;;;;8.97;100.00;97592.44;4967800;28;20050;-78
2021/11/02 12:40:20;;;;;;;2.50;1.60;;;;;;;8.95;100.00;97608.03;4962246;28;20196;-78
2021/11/02 12:42:49;;;;;;;5.80;1.60;;;;;;;8.86;100.00;97593.06;4968998;28;20462;-78
2021/11/02 12:45:19;;;;;;;6.45;1.73;;;;;;;8.89;100.00;97606.19;4973420;28;20050;-78
2021/11/02 12:47:47;;;;;;;3.30;1.48;;;;;;;8.67;100.00;97611.88;4973195;28;20050;-77
2021/11/02 12:50:16;;;;;;;3.65;1.58;;;;;;;8.59;100.00;97598.53;4973525;28;20058;-78
2021/11/02 12:52:44;;;;;;;4.40;1.63;;;;;;;8.40;100.00;97605.63;4973286;28;20074;-77
2021/11/02 12:55:14;;;;;;;4.75;1.38;;;;;;;8.43;100.00;97621.44;4971966;28;20051;-77
2021/11/02 12:57:43;;;;;;;1.70;1.40;;;;;;;8.49;100.00;97603.53;4973360;28;20055;-77
2021/11/02 13:00:14;;;;;;;7.07;1.98;;;;;;;8.58;100.00;97618.56;4972295;28;20055;-78
2021/11/02 13:02:43;;;;;;;6.45;2.22;;;;;;;8.59;100.00;97622.09;4973266;28;20051;-78
2021/11/02 13:05:17;;;;;;;6.65;2.42;;;;;;;8.65;100.00;97621.25;4972933;28;20046;-78
2021/11/02 13:07:51;;;;;;;3.95;2.03;;;;;;;8.62;100.00;97621.66;4973433;28;20058;-78
2021/11/02 13:10:20;;;;;;;5.97;2.70;;;;;;;8.64;100.00;97622.28;4971498;28;20192;-78
2021/11/02 13:12:50;;;;;;;3.88;2.95;;;;;;;8.76;100.00;97612.50;4973164;28;20432;-78
2021/11/02 13:15:18;;;;;;;7.63;3.80;;;;;;;8.92;100.00;97630.16;4972831;28;20110;-78
2021/11/02 13:17:51;;;;;;;4.28;2.92;;;;;;;9.03;100.00;97624.09;4973250;28;20135;-78
2021/11/02 13:20:32;;;;;;;8.70;3.65;;;;;;;9.15;100.00;97624.28;4972941;28;20050;-78
2021/11/02 13:22:59;;;;;;;8.40;2.28;;;;;;;9.18;100.00;97623.00;4975074;28;20042;-78
2021/11/02 13:25:35;;;;;;;6.60;2.42;;;;;;;9.18;100.00;97625.72;4976940;28;20456;-78
2021/11/02 13:28:02;;;;;;;5.95;2.97;;;;;;;9.27;100.00;97632.56;4976996;28;20054;-78
2021/11/02 13:30:33;;;;;;;5.53;2.47;;;;;;;9.24;100.00;97634.88;4976136;28;20062;-78
2021/11/02 13:33:07;;;;;;;4.18;1.48;;;;;;;9.34;100.00;97611.66;4976526;28;20055;-78
2021/11/02 13:35:51;;;;;;;5.72;1.50;;;;;;;9.69;100.00;97622.13;4976401;28;20054;-78
2021/11/02 13:38:39;;;;;;;2.88;0.88;;;;;;;9.53;100.00;97601.78;4976146;28;20070;-79
2021/11/02 13:41:10;;;;;;;4.03;1.30;;;;;;;9.62;100.00;97626.78;4954522;29;20051;-79
2021/11/02 13:43:38;;;;;;;2.40;1.58;;;;;;;9.32;100.00;97610.22;4972800;28;20134;-79
2021/11/02 13:46:08;;;;;;;4.53;1.85;;;;;;;9.64;100.00;97630.13;4974912;28;20055;-79
2021/11/02 13:48:42;;;;;;;4.65;1.70;;;;;;;9.68;100.00;97619.66;4976429;28;20050;-79
2021/11/02 13:51:11;;;;;;;3.53;1.55;;;;;;;9.50;100.00;97623.06;4976555;28;20051;-79
2021/11/02 13:53:38;;;;;;;2.53;1.05;;;;;;;9.53;100.00;97604.50;4976237;28;20042;-79
2021/11/02 13:56:07;;;;;;;4.65;1.75;;;;;;;9.53;100.00;97606.38;4976379;28;20046;-79
2021/11/02 13:58:34;;;;;;;2.20;1.10;;;;;;;9.44;100.00;97608.50;4976474;28;20055;-78
2021/11/02 14:01:02;;;;;;;2.22;1.27;;;;;;;9.39;100.00;97613.72;4975654;28;20059;-79
2021/11/02 14:03:35;;;;;;;4.13;1.60;;;;;;;9.25;100.00;97610.25;4967883;28;20051;-79
2021/11/02 14:06:10;;;;;;;2.42;1.15;;;;;;;9.19;100.00;97592.13;4976267;28;20491;-79
2021/11/02 14:08:37;;;;;;;3.97;1.10;;;;;;;9.31;100.00;97612.09;4975864;28;20050;-79
2021/11/02 14:11:22;;;;;;;3.30;1.10;;;;;;;9.09;100.00;97589.84;4976563;28;20529;-79
2021/11/02 14:13:53;;;;;;;1.48;0.90;;;;;;;9.12;100.00;97621.13;4975786;28;20047;-79
2021/11/02 14:16:35;;;;;;;3.17;1.00;;;;;;;8.99;100.00;97616.59;4975826;28;20054;-79
2021/11/02 14:19:37;;;;;;;1.65;1.00;;;;;;;8.92;100.00;97597.63;4974828;28;20051;-78
2021/11/02 14:22:09;;;;;;;1.65;0.95;;;;;;;8.82;100.00;97613.50;4933262;29;20574;-78
2021/11/02 14:24:38;;;;;;;1.98;1.10;;;;;;;8.84;100.00;97611.44;4934942;29;20056;-78
2021/11/02 14:27:07;;;;;;;2.67;1.13;;;;;;;9.08;100.00;97644.28;4954900;28;20050;-78
2021/11/02 14:29:51;;;;;;;3.92;1.20;;;;;;;9.17;100.00;97627.59;4975549;28;20047;-79
2021/11/02 14:32:47;;;;;;;4.15;1.42;;;;;;;9.43;100.00;97633.97;4975960;28;20047;-78
2021/11/02 14:35:56;;;;;;;3.03;1.23;;;;;;;9.33;100.00;97612.75;4970890;28;20055;-78
2021/11/02 14:38:24;;;;;;;1.92;1.20;;;;;;;9.39;100.00;97632.72;4960242;28;20063;-78
2021/11/02 14:40:53;;;;;;;1.23;0.98;;;;;;;9.37;100.00;97626.69;4975699;28;20069;-78
2021/11/02 14:43:23;;;;;;;1.70;1.00;;;;;;;9.25;100.00;97610.25;4975049;28;20043;-78
2021/11/02 14:45:51;;;;;;;2.97;0.88;;;;;;;9.45;100.00;97642.72;4975227;28;20491;-78
2021/11/02 14:48:34;;;;;;;2.17;0.90;;;;;;;9.36;100.00;97627.72;4976003;28;20458;-78
2021/11/02 14:51:03;;;;;;;6.95;0.90;;;;;;;9.16;100.00;97627.81;4969088;28;20070;-77
2021/11/02 14:53:36;;;;;;;2.72;0.80;;;;;;;9.15;100.00;97635.13;4975588;28;20043;-78
2021/11/02 14:56:05;;;;;;;2.88;0.93;;;;;;;9.14;100.00;97641.56;4974917;28;20130;-78
2021/11/02 14:58:50;;;;;;;1.65;1.00;;;;;;;9.16;100.00;97636.75;4975571;28;20083;-78
2021/11/02 15:01:37;;;;;;;1.77;0.90;;;;;;;9.01;100.00;97615.31;4975270;28;20050;-78
2021/11/02 15:04:06;;;;;;;1.65;0.75;;;;;;;9.04;100.00;97638.47;4959397;28;20092;-78
2021/11/02 15:06:36;;;;;;;1.77;0.90;;;;;;;9.03;100.00;97631.38;4973950;28;20051;-78
2021/11/02 15:09:06;;;;;;;3.60;0.80;;;;;;;8.91;100.00;97624.94;4975607;28;20054;-79
2021/11/02 15:11:33;;;;;;;1.90;0.73;;;;;;;8.90;100.00;97636.81;4975234;28;20059;-78
2021/11/02 15:14:04;;;;;;;2.70;0.93;;;;;;;8.74;100.00;97622.69;4974844;28;20059;-78
2021/11/02 15:16:31;;;;;;;2.13;0.70;;;;;;;8.54;100.00;97625.44;4975114;28;20051;-78
2021/11/02 15:19:03;;;;;;;1.85;0.73;;;;;;;8.59;100.00;97638.34;4974968;28;20062;-78
2021/11/02 15:21:35;;;;;;;1.00;0.80;;;;;;;8.60;100.00;97635.41;4975355;28;20047;-79
2021/11/02 15:24:09;;;;;;;3.08;0.90;;;;;;;8.57;100.00;97637.72;4973470;28;20058;-78
2021/11/02 15:26:47;;;;;;;4.30;1.35;;;;;;;8.50;100.00;97638.53;4974634;28;20050;-78
2021/11/02 15:29:14;;;;;;;1.67;0.70;;;;;;;8.54;100.00;97640.84;4960763;28;20502;-78
2021/11/02 15:31:42;;;;;;;4.50;1.00;;;;;;;8.46;100.00;97633.75;4974836;28;20047;-78
2021/11/02 15:34:14;;;;;;;3.38;1.83;;;;;;;8.42;100.00;97636.03;4975020;28;20491;-78
2021/11/02 15:36:43;;;;;;;2.75;1.15;;;;;;;8.38;100.00;97637.47;4974229;28;20050;-79
2021/11/02 15:39:11;;;;;;;1.42;1.15;;;;;;;8.41;100.00;97638.94;4974439;28;20506;-78
2021/11/02 15:41:38;;;;;;;3.28;1.52;;;;;;;8.50;100.00;97626.88;4973142;28;20053;-78
2021/11/02 15:44:07;;;;;;;1.92;1.25;;;;;;;8.51;100.00;97636.69;4974699;28;20055;-79
2021/11/02 15:46:41;;;;;;;1.88;1.48;;;;;;;8.33;100.00;97621.84;4974039;28;20495;-79
2021/11/02 15:49:09;;;;;;;1.20;1.10;;;;;;;8.33;100.00;97629.97;4974518;28;20161;-78
2021/11/02 15:51:39;;;;;;;2.08;1.20;;;;;;;8.41;100.00;97647.06;4974212;28;20130;-78
2021/11/02 15:54:12;;;;;;;1.35;1.23;;;;;;;8.40;100.00;97656.22;4974303;28;20046;-78
2021/11/02 15:56:40;;;;;;;2.13;0.90;;;;;;;8.45;100.00;97651.06;4974400;28;20055;-78
2021/11/02 15:59:09;;;;;;;1.42;1.00;;;;;;;8.18;100.00;97637.47;4973081;28;20054;-78
2021/11/02 16:01:42;;;;;;;2.80;1.00;;;;;;;8.14;100.00;97639.78;4974062;28;20133;-78
2021/11/02 16:04:20;;;;;;;0.90;0.80;;;;;;;8.22;100.00;97659.53;4973929;28;20051;-81
2021/11/02 16:10:13;;;;;;;1.17;0.77;;;;;;;8.20;100.00;97658.91;4973064;28;20106;-80
2021/11/02 16:16:41;;;;;;;1.70;0.67;;;;;;;7.97;100.00;97652.00;4960395;28;20066;-81
2021/11/02 16:19:22;;;;;;;0.60;0.50;;;;;;;8.03;100.00;97661.19;4972860;28;20662;-80
2021/11/02 16:22:32;;;;;;;1.13;0.70;;;;;;;7.88;100.00;97655.97;4973704;28;20442;-80
2021/11/02 16:34:44;;;;;;;0.70;0.60;;;;;;;7.52;100.00;97714.72;4925377;29;20091;-81
2021/11/02 16:37:11;;;;;;;1.30;0.70;;;;;;;7.34;100.00;97742.28;4972522;28;20063;-80
2021/11/02 16:39:38;;;;;;;2.40;0.80;;;;;;;7.28;100.00;97737.66;4973132;28;20051;-80
2021/11/02 16:42:07;;;;;;;0.57;0.50;;;;;;;7.01;100.00;97729.38;4973163;28;20055;-80
2021/11/02 16:44:37;;;;;;;2.28;0.80;;;;;;;7.02;100.00;97714.84;4973470;28;20430;-80
2021/11/02 16:47:06;;;;;;;;;;;;;;;7.23;100.00;97737.44;4973939;28;20057;-80
2021/11/02 16:49:35;;;;;;;0.80;0.68;;;;;;;7.07;100.00;97733.16;4971335;28;19981;-80
2021/11/02 16:52:06;;;;;;;0.70;0.70;;;;;;;7.03;100.00;97730.03;4973067;28;20082;-80
2021/11/02 16:54:34;;;;;;;1.20;0.77;;;;;;;7.17;100.00;97736.34;4972780;28;20047;-80
2021/11/02 16:57:07;;;;;;;1.30;0.82;;;;;;;7.16;100.00;97740.09;4973021;28;20051;-80
2021/11/02 16:59:50;;;;;;;1.35;0.70;;;;;;;7.19;100.00;97733.47;4973122;28;20058;-80
2021/11/02 17:02:19;;;;;;;0.93;0.75;;;;;;;7.13;100.00;97743.19;4972144;28;20114;-80
2021/11/02 17:05:01;;;;;;;4.50;1.70;;;;;;;6.89;100.00;97728.25;4961395;28;20304;-80
2021/11/02 17:07:35;;;;;;;4.13;1.27;;;;;;;6.93;100.00;97743.06;4954312;28;20055;-80
2021/11/02 17:10:32;;;;;;;1.85;0.80;;;;;;;6.93;100.00;97734.13;4973137;28;20135;-80
2021/11/02 17:13:04;;;;;;;1.10;0.70;;;;;;;6.83;100.00;97731.75;4973295;28;20046;-80
2021/11/02 17:15:34;;;;;;;0.60;0.40;;;;;;;6.86;100.00;97745.69;4972574;28;20110;-80
2021/11/02 17:18:01;;;;;;;;;;;;;;;6.85;100.00;97749.44;4973976;28;20051;-79
2021/11/02 17:20:29;;;;;;;0.38;0.38;;;;;;;6.66;100.00;97725.81;4971392;28;19929;-80
2021/11/02 17:22:56;;;;;;;2.08;1.38;;;;;;;6.69;100.00;97752.41;4972969;28;20047;-80
2021/11/02 17:25:58;;;;;;;3.00;1.15;;;;;;;6.55;100.00;97740.66;4972619;28;20114;-80
2021/11/02 17:28:27;;;;;;;1.38;0.85;;;;;;;6.40;100.00;97740.75;4962376;28;20050;-80
2021/11/02 17:30:54;;;;;;;1.50;1.02;;;;;;;6.47;100.00;97755.13;4972332;28;20768;-80
2021/11/02 17:33:21;;;;;;;1.13;1.00;;;;;;;6.49;100.00;97760.34;4972828;28;20118;-80
2021/11/02 17:35:57;;;;;;;2.13;1.10;;;;;;;6.35;100.00;97746.72;4972617;28;20102;-80
2021/11/02 17:38:32;;;;;;;5.50;1.05;;;;;;;6.24;100.00;97763.41;4972219;28;20054;-80
2021/11/02 17:41:01;;;;;;;1.73;0.75;;;;;;;6.14;100.00;97755.63;4989322;28;20057;-81
2021/11/02 17:43:31;;;;;;;0.65;0.60;;;;;;;6.15;100.00;97756.47;4978401;28;20050;-81
2021/11/02 17:45:59;;;;;;;3.60;0.73;;;;;;;6.10;100.00;97770.53;4971767;28;20046;-81
2021/11/02 17:48:26;;;;;;;2.22;1.30;;;;;;;6.13;100.00;97775.53;4971594;28;20047;-81
2021/11/02 17:50:53;;;;;;;2.83;1.80;;;;;;;6.05;100.00;97789.13;4971185;28;20047;-82
2021/11/02 17:53:21;;;;;;;2.33;1.55;;;;;;;6.09;100.00;97792.31;4971770;28;20043;-80
2021/11/02 17:55:52;;;;;;;3.45;1.20;;;;;;;5.92;100.00;97770.09;4972498;28;20058;-80
2021/11/02 17:58:22;;;;;;;2.10;1.08;;;;;;;5.89;100.00;97778.56;4972584;28;20574;-81
2021/11/02 18:00:51;;;;;;;3.53;0.98;;;;;;;5.84;100.00;97781.78;4971100;28;20054;-81
2021/11/02 18:03:31;;;;;;;0.80;0.77;;;;;;;5.81;100.00;97783.03;4972034;28;20110;-81
2021/11/02 18:06:01;;;;;;;;;;;;;;;5.85;100.00;97787.00;4972462;28;20142;-81
2021/11/02 18:08:46;;;;;;;0.93;0.80;;;;;;;5.82;100.00;97786.56;4977300;28;19921;-81
2021/11/02 18:11:15;;;;;;;0.60;0.60;;;;;;;5.64;100.00;97779.69;4979838;28;20051;-81